Salmon Arm, Canada
Current Conditions -  °F | °C
As of 5:27 AM on Friday 24 Oct 2014 (Local Time) from CYRV Reporting Station
Overcast Overcast  
Wind Chill: 45°   Ceiling: 2400
Heat Index: 45°   Visibility: 9mi
Dew Point: 43°   Wind: 3mph
Humidity: 93%   Direction: 50°NE
Pressure: 30"   Gusts: NA
Location:  50.7°N, 119.27°W
Report Text: CYRV 241227Z AUTO 05003KT 280V070 9SM FEW011 BKN024 OVC070 07/06 A3000 RMK SLP170
Loading
Personal Weather Stations






























Interactive Weather Map
Tropical Storm Tracking
New forecast layout! Learn more

10-Day Weather Forecast

Advertisements
Track Severe Weather on mobile